Seattle, WA (98101)

12:12 AM PDT on October 31, 2014 (GMT -0700)
Capitol Hill | Change Station
CLOSE
Current Station
Personal Weather Station
Location: Seattle, WA
Elevation: 367 ft
Nearby Weather Stations

Elev 367 ft 47.62 °N, 122.32 °W | Updated 10 minutes ago

Rain
Rain
53.7 °F
Feels Like 53.7 °F
N
1.0
Wind Variable Wind from SSE
Gusts 7.0 mph

Today
High -- | Low -- °F
--% Chance of Precip.
Yesterday
High -- | Low -- °F
Precip. -- in
7:52 AM 5:53 PM
First Quarter, 52% visible
Pressure 29.77 in
Visibility 8.0 miles
Clouds Scattered Clouds 1400 ft
Mostly Cloudy 4200 ft
Overcast 5000 ft
Dew Point 53 °F
Humidity 96%
Rainfall 0.00 in
Snow Depth Not available.
UV 0 out of 12
Pollen .30 out of 12
Air Quality Not available.
Flu Activity Not available.
SPECI KBFI 310709Z 14007KT 8SM -RA SCT014 BKN042 OVC050 13/11 A2977 RMK AO2 P0002

More Conditions Fewer Conditions

Pressure 29.77 in
Visibility 8.0 miles
Clouds Scattered Clouds 1400 ft
Mostly Cloudy 4200 ft
Overcast 5000 ft
Dew Point 53 °F
Humidity 96%
Rainfall 0.00 in
Snow Depth Not available.
UV 0 out of 12
Pollen .30 out of 12
Air Quality Not available.
Flu Activity Not available.
SPECI KBFI 310709Z 14007KT 8SM -RA SCT014 BKN042 OVC050 13/11 A2977 RMK AO2 P0002

More Conditions Fewer Conditions

10-Day Weather Forecast

Almanac

Astronomy

Oct. 31, 2014 Rise Set
Actual Time
Civil Twilight
Nautical Twilight
Astronomical Twilight
Moon
Length of Visible Light
Length of Day
Tomorrow will be .
, % of the Moon is Illuminated

Today's Extremes

State Highs State Lows

Community

WunderPhotos

Upload Photos

1,766,571 photos uploaded!

WunderBlogs® & News

Nearby

Air Quality

  Air Quality AQ Index Pollutant
Not available.

Snow Depth

Station Depth Elevation

Earthquake Activity

City Distance Mag. Time & Date
Minimum magnitude displayed is 2.5.

Coastal Water Temperatures

Place Temperature

Nearby Weather Stations